createdAt,value
2022-08-04T00:01:24.051Z,13.50
2022-08-04T00:03:59.729Z,13.30
2022-08-04T00:06:35.560Z,13.40
2022-08-04T00:09:09.746Z,13.40
2022-08-04T00:11:45.500Z,13.40
2022-08-04T00:14:17.117Z,11.80
2022-08-04T00:16:49.623Z,13.30
2022-08-04T00:19:26.296Z,13.60
2022-08-04T00:21:57.916Z,13.20
2022-08-04T00:24:31.140Z,14.20
2022-08-04T00:27:01.973Z,13.00
2022-08-04T00:29:33.834Z,13.60
2022-08-04T00:32:05.093Z,12.30
2022-08-04T00:34:36.272Z,12.40
2022-08-04T00:37:07.643Z,13.80
2022-08-04T00:39:38.962Z,13.40
2022-08-04T00:42:26.221Z,15.10
2022-08-04T00:45:04.307Z,14.50
2022-08-04T00:47:41.183Z,13.50
2022-08-04T00:50:12.800Z,13.70
2022-08-04T00:52:57.903Z,12.80
2022-08-04T00:55:44.752Z,13.40
2022-08-04T00:58:24.603Z,12.80
2022-08-04T01:00:59.716Z,13.40
2022-08-04T01:03:40.613Z,14.10
2022-08-04T01:06:13.706Z,13.70
2022-08-04T01:08:56.426Z,12.40
2022-08-04T01:11:56.219Z,13.00
2022-08-04T01:14:32.593Z,12.50
2022-08-04T01:17:20.931Z,12.70
2022-08-04T01:20:01.860Z,12.90
2022-08-04T01:22:43.886Z,11.70
2022-08-04T01:25:21.187Z,12.40
2022-08-04T01:28:08.307Z,14.00
2022-08-04T01:30:39.699Z,14.30
2022-08-04T01:33:14.485Z,14.60
2022-08-04T01:35:48.753Z,15.10
2022-08-04T01:38:22.026Z,12.40
2022-08-04T01:40:53.575Z,13.90
2022-08-04T01:43:24.995Z,14.20
2022-08-04T01:45:58.407Z,12.40
2022-08-04T01:48:29.853Z,14.00
2022-08-04T01:51:01.192Z,12.10
2022-08-04T01:53:33.253Z,12.30
2022-08-04T01:56:04.810Z,12.50
2022-08-04T01:58:36.460Z,11.90
2022-08-04T02:01:09.114Z,12.20
2022-08-04T02:04:19.703Z,13.70
2022-08-04T02:06:45.253Z,14.60
2022-08-04T02:09:18.278Z,13.70
2022-08-04T02:11:50.887Z,12.50
2022-08-04T02:17:12.604Z,12.80
2022-08-04T02:20:05.612Z,13.80
2022-08-04T02:22:51.205Z,12.00
2022-08-04T02:25:25.700Z,13.10
2022-08-04T02:28:05.429Z,15.00
2022-08-04T02:30:40.984Z,13.90
2022-08-04T02:33:13.469Z,14.10
2022-08-04T02:35:46.745Z,11.80
2022-08-04T02:38:26.109Z,11.80
2022-08-04T02:41:00.157Z,13.10
2022-08-04T02:43:51.589Z,13.30
2022-08-04T02:46:23.670Z,12.80
2022-08-04T02:48:55.022Z,12.30
2022-08-04T02:51:27.484Z,14.60
2022-08-04T02:53:59.400Z,15.00
2022-08-04T02:56:31.820Z,12.90
2022-08-04T02:59:03.561Z,13.00
2022-08-04T03:01:35.023Z,12.90
2022-08-04T03:04:18.257Z,12.30
2022-08-04T03:07:14.391Z,14.20
2022-08-04T03:12:28.447Z,13.30
2022-08-04T03:15:14.638Z,13.50
2022-08-04T03:18:03.330Z,16.60
2022-08-04T03:20:51.790Z,19.20
2022-08-04T03:23:35.743Z,17.80
2022-08-04T03:26:18.633Z,16.00
2022-08-04T03:29:04.577Z,16.50
2022-08-04T03:31:48.847Z,13.60
2022-08-04T03:34:26.849Z,17.10
2022-08-04T03:37:16.943Z,15.20
2022-08-04T03:40:03.957Z,13.60
2022-08-04T03:42:46.591Z,13.60
2022-08-04T03:45:30.917Z,14.30
2022-08-04T03:48:13.839Z,14.40
2022-08-04T03:51:35.397Z,13.30
2022-08-04T03:54:23.032Z,12.40
2022-08-04T03:57:13.241Z,12.90
2022-08-04T03:59:51.184Z,12.40
2022-08-04T04:02:36.804Z,15.10
2022-08-04T04:05:22.955Z,15.30
2022-08-04T04:08:18.705Z,13.80
2022-08-04T04:10:57.131Z,15.40
2022-08-04T04:13:31.259Z,14.90
2022-08-04T04:16:08.451Z,14.10
2022-08-04T04:19:02.259Z,12.30
2022-08-04T04:21:43.645Z,12.10
2022-08-04T04:24:33.941Z,13.10
2022-08-04T04:27:10.202Z,12.60
2022-08-04T04:30:04.691Z,13.60
2022-08-04T04:32:41.501Z,12.20
2022-08-04T04:35:19.877Z,12.60
2022-08-04T04:38:10.177Z,15.80
2022-08-04T04:40:46.026Z,15.80
2022-08-04T04:43:22.904Z,16.20
2022-08-04T04:46:17.313Z,15.60
2022-08-04T04:48:53.350Z,16.60
2022-08-04T04:51:28.670Z,17.50
2022-08-04T04:54:03.203Z,16.20
2022-08-04T04:56:38.314Z,15.40
2022-08-04T04:59:11.335Z,14.50
2022-08-04T05:01:53.424Z,14.80
2022-08-04T05:04:43.521Z,14.30
2022-08-04T05:07:35.853Z,14.00
2022-08-04T05:10:11.738Z,13.30
2022-08-04T05:14:38.593Z,14.10
2022-08-04T05:15:50.855Z,15.00
2022-08-04T05:18:23.647Z,14.10
2022-08-04T05:20:56.830Z,15.70
2022-08-04T05:23:29.310Z,16.20
2022-08-04T05:26:01.467Z,18.20
2022-08-04T05:28:35.769Z,19.10
2022-08-04T05:31:07.862Z,18.20
2022-08-04T05:33:46.731Z,17.20
2022-08-04T05:36:35.445Z,17.80
2022-08-04T05:39:13.688Z,21.00
2022-08-04T05:41:48.173Z,18.60
2022-08-04T05:44:27.541Z,18.70
2022-08-04T05:46:59.269Z,17.60
2022-08-04T05:49:30.801Z,17.20
2022-08-04T05:52:03.787Z,16.00
2022-08-04T05:54:35.308Z,16.90
2022-08-04T05:57:06.759Z,14.70
2022-08-04T05:59:39.172Z,14.00
2022-08-04T06:02:11.070Z,13.30
2022-08-04T06:04:42.883Z,14.20
2022-08-04T06:07:14.546Z,12.80
2022-08-04T06:09:45.785Z,12.60
2022-08-04T06:12:19.385Z,13.00
2022-08-04T06:14:51.472Z,11.60
2022-08-04T06:18:33.688Z,10.80
2022-08-04T06:20:18.046Z,10.10
2022-08-04T06:22:51.965Z,9.00
2022-08-04T06:25:23.829Z,8.50
2022-08-04T06:27:56.453Z,9.00
2022-08-04T06:30:27.977Z,8.40
2022-08-04T06:33:03.381Z,7.10
2022-08-04T06:35:36.117Z,8.10
2022-08-04T06:38:06.963Z,9.60
2022-08-04T06:40:37.795Z,9.00
2022-08-04T06:43:10.015Z,8.60
2022-08-04T06:45:41.544Z,9.10
2022-08-04T06:48:13.984Z,8.60
2022-08-04T06:51:24.435Z,8.20
2022-08-04T06:53:36.848Z,8.10
2022-08-04T06:56:09.125Z,7.70
2022-08-04T06:58:40.881Z,7.00
2022-08-04T07:01:11.823Z,7.60
2022-08-04T07:03:42.384Z,7.60
2022-08-04T07:06:14.007Z,7.20
2022-08-04T07:08:45.177Z,7.80
2022-08-04T07:11:16.383Z,7.20
2022-08-04T07:13:47.842Z,7.20
2022-08-04T07:16:20.193Z,7.30
2022-08-04T07:19:10.289Z,7.90
2022-08-04T07:22:15.934Z,7.50
2022-08-04T07:24:34.349Z,7.10
2022-08-04T07:27:05.722Z,7.10
2022-08-04T07:29:36.719Z,6.80
2022-08-04T07:32:08.709Z,6.60
2022-08-04T07:34:40.401Z,6.90
2022-08-04T07:37:13.831Z,6.60
2022-08-04T07:39:48.373Z,6.40
2022-08-04T07:42:21.618Z,6.70
2022-08-04T07:44:52.442Z,7.00
2022-08-04T07:47:25.414Z,6.00
2022-08-04T07:49:58.045Z,5.40
2022-08-04T07:52:29.129Z,6.40
2022-08-04T07:55:00.030Z,6.00
2022-08-04T07:57:40.403Z,5.30
2022-08-04T08:00:15.029Z,6.10
2022-08-04T08:05:16.966Z,5.10
2022-08-04T08:10:26.462Z,4.80
2022-08-04T08:12:57.449Z,5.00
2022-08-04T08:15:27.964Z,4.70
2022-08-04T08:18:00.757Z,4.90
2022-08-04T08:20:32.937Z,4.60
2022-08-04T08:23:04.463Z,5.90
2022-08-04T08:25:35.404Z,5.40
2022-08-04T08:28:06.786Z,4.60
2022-08-04T08:30:38.030Z,5.30
2022-08-04T08:33:14.166Z,4.00
2022-08-04T08:35:53.678Z,5.20
2022-08-04T08:38:30.234Z,3.10
2022-08-04T08:41:08.988Z,3.50
2022-08-04T08:44:06.106Z,3.40
2022-08-04T08:46:49.813Z,3.50
2022-08-04T08:50:02.709Z,3.20
2022-08-04T08:52:56.593Z,3.50
2022-08-04T08:55:28.025Z,2.80
2022-08-04T08:58:06.479Z,2.90
2022-08-04T09:00:43.220Z,2.40
2022-08-04T09:03:22.057Z,2.40
2022-08-04T09:05:57.255Z,2.70
2022-08-04T09:08:41.097Z,2.30
2022-08-04T09:11:15.510Z,2.10
2022-08-04T09:13:49.487Z,2.60
2022-08-04T09:16:22.544Z,2.40
2022-08-04T09:18:57.814Z,2.40
2022-08-04T09:21:33.164Z,2.30
2022-08-04T09:24:35.754Z,2.60
2022-08-04T09:27:02.433Z,2.70
2022-08-04T09:29:37.667Z,2.70
2022-08-04T09:32:10.410Z,2.60
2022-08-04T09:34:44.811Z,2.30
2022-08-04T09:37:18.824Z,2.20
2022-08-04T09:39:54.127Z,2.10
2022-08-04T09:42:36.524Z,2.50
2022-08-04T09:45:13.639Z,2.40
2022-08-04T09:47:56.426Z,1.90
2022-08-04T09:50:33.828Z,2.80
2022-08-04T09:53:26.771Z,2.60
2022-08-04T09:56:03.557Z,2.50
2022-08-04T09:58:45.749Z,2.20
2022-08-04T10:01:22.615Z,3.00
2022-08-04T10:03:56.339Z,2.70
2022-08-04T10:06:46.412Z,2.80
2022-08-04T10:09:25.945Z,2.40
2022-08-04T10:12:04.057Z,2.40
2022-08-04T10:14:39.455Z,2.60
2022-08-04T10:17:17.555Z,2.60
2022-08-04T10:19:52.534Z,3.20
2022-08-04T10:22:29.226Z,2.80
2022-08-04T10:25:05.271Z,2.70
2022-08-04T10:27:58.658Z,2.80
2022-08-04T10:30:31.720Z,2.50
2022-08-04T10:33:05.270Z,2.70
2022-08-04T10:35:37.085Z,2.60
2022-08-04T10:38:13.586Z,2.70
2022-08-04T10:40:47.089Z,2.60
2022-08-04T10:43:23.561Z,2.70
2022-08-04T10:45:58.355Z,2.40
2022-08-04T10:48:35.661Z,2.50
2022-08-04T10:51:12.179Z,2.50
2022-08-04T10:53:43.753Z,2.60
2022-08-04T10:56:16.982Z,2.80
2022-08-04T10:58:51.209Z,2.90
2022-08-04T11:02:01.050Z,3.00
2022-08-04T11:04:27.462Z,2.70
2022-08-04T11:07:00.481Z,2.50
2022-08-04T11:09:32.895Z,2.90
2022-08-04T11:12:08.143Z,2.70
2022-08-04T11:14:41.028Z,2.70
2022-08-04T11:19:47.436Z,2.70
2022-08-04T11:22:26.303Z,2.70
2022-08-04T11:24:59.373Z,2.70
2022-08-04T11:27:35.706Z,3.40
2022-08-04T11:30:07.277Z,3.30
2022-08-04T11:32:41.581Z,2.70
2022-08-04T11:35:15.209Z,2.90
2022-08-04T11:37:48.132Z,2.90
2022-08-04T11:40:23.590Z,2.80
2022-08-04T11:42:58.141Z,2.70
2022-08-04T11:45:32.568Z,3.40
2022-08-04T11:48:06.224Z,3.10
2022-08-04T11:50:39.216Z,2.70
2022-08-04T11:53:13.504Z,2.90
2022-08-04T11:56:07.714Z,2.90
2022-08-04T11:58:36.284Z,2.90
2022-08-04T12:01:10.689Z,2.60
2022-08-04T12:04:03.794Z,2.90
2022-08-04T12:06:40.215Z,3.40
2022-08-04T12:09:13.319Z,2.50
2022-08-04T12:11:55.877Z,2.40
2022-08-04T12:14:31.158Z,3.10
2022-08-04T12:17:02.725Z,2.60
2022-08-04T12:20:04.603Z,2.60
2022-08-04T12:22:31.325Z,2.60
2022-08-04T12:25:04.418Z,2.70
2022-08-04T12:27:37.586Z,2.60
2022-08-04T12:31:00.905Z,2.50
2022-08-04T12:33:01.698Z,2.80
2022-08-04T12:38:06.346Z,2.30
2022-08-04T12:40:39.634Z,2.50
2022-08-04T12:43:12.829Z,2.70
2022-08-04T12:45:50.939Z,2.60
2022-08-04T12:48:23.102Z,2.20
2022-08-04T12:50:55.375Z,2.80
2022-08-04T12:53:31.758Z,2.60
2022-08-04T12:56:04.009Z,2.40
2022-08-04T13:02:08.470Z,2.30
2022-08-04T13:04:13.865Z,2.20
2022-08-04T13:06:46.035Z,2.30
2022-08-04T13:09:18.741Z,2.50
2022-08-04T13:11:52.850Z,2.40
2022-08-04T13:14:27.641Z,2.10
2022-08-04T13:17:03.015Z,2.60
2022-08-04T13:19:41.462Z,2.40
2022-08-04T13:22:16.641Z,2.40
2022-08-04T13:24:56.378Z,2.30
2022-08-04T13:27:48.407Z,2.30
2022-08-04T13:30:22.557Z,2.30
2022-08-04T13:32:56.916Z,2.10
2022-08-04T13:35:56.018Z,2.50
2022-08-04T13:38:20.563Z,2.40
2022-08-04T13:40:52.254Z,2.50
2022-08-04T13:44:15.587Z,2.30
2022-08-04T13:46:27.940Z,2.20
2022-08-04T13:49:37.800Z,2.40
2022-08-04T13:54:36.433Z,2.10
2022-08-04T13:57:14.853Z,2.30
2022-08-04T14:02:21.635Z,2.40
2022-08-04T14:04:57.595Z,2.30
2022-08-04T14:07:29.576Z,2.20
2022-08-04T14:10:02.943Z,2.00
2022-08-04T14:12:38.553Z,1.90
2022-08-04T14:16:02.159Z,2.30
2022-08-04T14:18:24.226Z,2.50
2022-08-04T14:21:01.334Z,2.10
2022-08-04T14:23:47.198Z,2.10
2022-08-04T14:26:33.358Z,2.00
2022-08-04T14:29:27.844Z,1.80
2022-08-04T14:32:21.423Z,2.40
2022-08-04T14:34:53.793Z,2.30
2022-08-04T14:37:24.836Z,2.20
2022-08-04T14:40:18.878Z,2.60
2022-08-04T14:42:54.972Z,2.10
2022-08-04T14:45:33.959Z,2.20
2022-08-04T14:48:07.406Z,2.00
2022-08-04T14:50:40.010Z,1.90
2022-08-04T14:53:13.197Z,2.10
2022-08-04T14:55:45.797Z,1.80
2022-08-04T14:58:35.315Z,1.90
2022-08-04T15:01:11.873Z,2.40
2022-08-04T15:03:50.517Z,1.90
2022-08-04T15:06:26.439Z,1.90
2022-08-04T15:08:58.629Z,2.10
2022-08-04T15:11:30.183Z,2.10
2022-08-04T15:14:01.353Z,2.20
2022-08-04T15:16:33.082Z,2.10
2022-08-04T15:21:34.751Z,2.20
2022-08-04T15:24:06.251Z,2.50
2022-08-04T15:26:39.807Z,2.30
2022-08-04T15:29:16.621Z,2.60
2022-08-04T15:32:05.337Z,2.00
2022-08-04T15:34:48.948Z,2.50
2022-08-04T15:37:29.735Z,2.30
2022-08-04T15:40:05.728Z,2.60
2022-08-04T15:42:40.032Z,2.60
2022-08-04T15:46:02.348Z,2.60
2022-08-04T15:48:34.828Z,2.50
2022-08-04T15:51:07.308Z,2.60
2022-08-04T15:54:03.592Z,2.60
2022-08-04T15:57:02.514Z,2.40
2022-08-04T15:59:50.711Z,2.30
2022-08-04T16:02:47.297Z,2.50
2022-08-04T16:05:37.140Z,2.50
2022-08-04T16:08:17.709Z,2.70
2022-08-04T16:10:49.509Z,2.50
2022-08-04T16:13:21.194Z,2.50
2022-08-04T16:15:53.534Z,2.40
2022-08-04T16:18:39.621Z,2.60
2022-08-04T16:21:21.073Z,2.50
2022-08-04T16:24:09.362Z,2.60
2022-08-04T16:26:54.783Z,2.90
2022-08-04T16:29:34.522Z,2.30
2022-08-04T16:32:18.942Z,2.50
2022-08-04T16:34:54.236Z,2.60
2022-08-04T16:37:30.978Z,2.90
2022-08-04T16:40:19.348Z,2.60
2022-08-04T16:42:50.850Z,2.70
2022-08-04T16:45:22.295Z,2.80
2022-08-04T16:48:08.271Z,2.70
2022-08-04T16:50:49.101Z,2.70
2022-08-04T16:53:52.704Z,2.80
2022-08-04T16:56:12.741Z,2.50
2022-08-04T17:01:32.454Z,3.30
2022-08-04T17:04:08.139Z,3.00
2022-08-04T17:06:40.300Z,3.10
2022-08-04T17:09:13.355Z,3.00
2022-08-04T17:11:45.090Z,2.50
2022-08-04T17:14:22.141Z,3.00
2022-08-04T17:16:53.736Z,3.10
2022-08-04T17:19:26.389Z,2.90
2022-08-04T17:24:34.432Z,2.50
2022-08-04T17:28:19.081Z,2.80
2022-08-04T17:29:56.579Z,2.30
2022-08-04T17:32:27.492Z,3.00
2022-08-04T17:35:02.115Z,2.60
2022-08-04T17:40:26.628Z,3.50
2022-08-04T17:44:04.105Z,2.90
2022-08-04T17:46:12.593Z,3.30
2022-08-04T17:48:43.808Z,3.40
2022-08-04T17:51:16.710Z,3.20
2022-08-04T17:54:02.972Z,3.10
2022-08-04T17:56:36.350Z,3.50
2022-08-04T17:59:55.866Z,3.20
2022-08-04T18:02:14.453Z,3.70
2022-08-04T18:05:05.789Z,3.90
2022-08-04T18:08:37.932Z,4.20
2022-08-04T18:10:51.648Z,4.00
2022-08-04T18:13:27.317Z,4.90
2022-08-04T18:16:05.896Z,4.40
2022-08-04T18:18:49.099Z,5.30
2022-08-04T18:21:21.498Z,5.00
2022-08-04T18:23:52.938Z,5.30
2022-08-04T18:26:31.395Z,6.00
2022-08-04T18:29:04.891Z,5.60
2022-08-04T18:31:37.945Z,5.70
2022-08-04T18:34:13.523Z,5.60
2022-08-04T18:36:55.672Z,5.90
2022-08-04T18:40:09.798Z,5.70
2022-08-04T18:42:20.921Z,6.00
2022-08-04T18:44:57.446Z,6.70
2022-08-04T18:47:30.970Z,9.20
2022-08-04T18:50:40.055Z,8.90
2022-08-04T18:53:12.632Z,7.70
2022-08-04T18:55:57.416Z,7.00
2022-08-04T18:58:28.825Z,7.40
2022-08-04T19:01:01.208Z,7.10
2022-08-04T19:03:33.542Z,7.60
2022-08-04T19:06:04.575Z,6.20
2022-08-04T19:08:42.272Z,7.40
2022-08-04T19:11:36.927Z,6.80
2022-08-04T19:14:05.184Z,6.10
2022-08-04T19:16:36.254Z,5.90
2022-08-04T19:19:07.948Z,5.80
2022-08-04T19:22:01.424Z,6.30
2022-08-04T19:24:35.305Z,5.90
2022-08-04T19:27:08.281Z,6.20
2022-08-04T19:29:41.384Z,5.60
2022-08-04T19:32:16.895Z,5.90
2022-08-04T19:34:48.331Z,5.40
2022-08-04T19:38:01.317Z,5.70
2022-08-04T19:40:13.212Z,4.80
2022-08-04T19:42:45.988Z,4.90
2022-08-04T19:45:40.154Z,4.80
2022-08-04T19:48:19.180Z,4.40
2022-08-04T19:50:50.527Z,5.30
2022-08-04T19:53:36.858Z,5.50
2022-08-04T19:56:08.946Z,5.80
2022-08-04T19:58:41.724Z,6.10
2022-08-04T20:16:02.420Z,4.90
2022-08-04T20:18:36.714Z,5.20
2022-08-04T20:21:36.770Z,5.10
2022-08-04T20:24:40.330Z,5.60
2022-08-04T20:27:07.818Z,6.10
2022-08-04T20:29:46.009Z,5.50
2022-08-04T20:32:23.990Z,6.60
2022-08-04T20:34:55.949Z,6.90
2022-08-04T20:37:55.272Z,5.80
2022-08-04T20:40:18.199Z,5.00
2022-08-04T20:42:50.886Z,6.00
2022-08-04T20:45:22.672Z,5.80
2022-08-04T20:47:54.437Z,5.30
2022-08-04T20:50:29.540Z,4.70
2022-08-04T20:53:18.601Z,5.60
2022-08-04T20:55:55.378Z,5.00
2022-08-04T20:58:28.049Z,5.10
2022-08-04T21:00:59.073Z,5.00
2022-08-04T21:03:49.238Z,6.30
2022-08-04T21:06:20.815Z,5.50
2022-08-04T21:11:47.275Z,4.90
2022-08-04T21:14:21.736Z,5.10
2022-08-04T21:17:00.768Z,5.20
2022-08-04T21:19:32.083Z,5.20
2022-08-04T21:22:10.607Z,5.50
2022-08-04T21:24:42.879Z,5.10
2022-08-04T21:27:19.531Z,6.10
2022-08-04T21:29:53.156Z,5.90
2022-08-04T21:32:27.311Z,5.60
2022-08-04T21:35:00.833Z,5.80
2022-08-04T21:37:57.977Z,5.20
2022-08-04T21:40:38.577Z,5.40
2022-08-04T21:43:09.503Z,5.90
2022-08-04T21:45:40.342Z,5.40
2022-08-04T21:48:11.321Z,5.80
2022-08-04T21:50:42.052Z,5.80
2022-08-04T21:53:12.948Z,5.30
2022-08-04T21:56:05.476Z,6.10
2022-08-04T21:58:34.606Z,6.50
2022-08-04T22:01:12.582Z,6.70
2022-08-04T22:03:52.825Z,6.80
2022-08-04T22:06:28.830Z,7.00
2022-08-04T22:08:59.639Z,7.20
2022-08-04T22:11:48.122Z,6.00
2022-08-04T22:14:27.663Z,6.70
2022-08-04T22:17:05.941Z,7.10
2022-08-04T22:19:40.345Z,7.00
2022-08-04T22:22:29.560Z,8.10
2022-08-04T22:25:12.333Z,8.50
2022-08-04T22:28:03.896Z,7.50
2022-08-04T22:30:36.661Z,8.10
2022-08-04T22:33:09.111Z,9.20
2022-08-04T22:35:49.037Z,10.50
2022-08-04T22:38:31.738Z,8.70
2022-08-04T22:41:12.338Z,8.10
2022-08-04T22:43:43.887Z,8.40
2022-08-04T22:46:21.660Z,8.90
2022-08-04T22:48:52.941Z,8.60
2022-08-04T22:51:23.984Z,7.10
2022-08-04T22:53:58.030Z,7.60
2022-08-04T22:56:38.031Z,7.90
2022-08-04T22:59:11.520Z,9.50
2022-08-04T23:04:33.213Z,7.40
2022-08-04T23:07:05.255Z,7.00
2022-08-04T23:09:50.394Z,7.90
2022-08-04T23:12:25.501Z,7.30
2022-08-04T23:14:58.346Z,6.90
2022-08-04T23:17:32.926Z,8.00
2022-08-04T23:20:23.534Z,7.10
2022-08-04T23:23:14.850Z,6.80
2022-08-04T23:26:07.760Z,6.90
2022-08-04T23:28:40.297Z,6.70
2022-08-04T23:31:11.130Z,7.10
2022-08-04T23:33:49.240Z,6.70
2022-08-04T23:36:29.637Z,6.80
2022-08-04T23:39:04.155Z,7.70
2022-08-04T23:41:51.035Z,8.30
2022-08-04T23:44:28.176Z,9.40
2022-08-04T23:47:02.836Z,8.50
2022-08-04T23:49:44.559Z,7.90
2022-08-04T23:52:28.052Z,8.90
2022-08-04T23:55:01.866Z,9.10
2022-08-04T23:58:06.468Z,8.30
